Latest Weather Observations for Hunters Hill

IDV60801

Issued at 1:03 pm EST Friday 18 August 2017 (issued every 30 minutes, with the page automatically refreshed every 10 minutes)

About weather observations | Map of weather stations | Latest weather observations for VIC | Other Formats
Station Details ID: 082139 Name: HUNTERS HILL Lat: -36.21 Lon: 147.54 Height: 981.0 m
Data from the previous 72 hours. | See also: Recent months at Hunters Hill
Date/Time
EST
Temp
°C
App
Temp
°C
Dew
Point
°C
Rel
Hum
%
Delta-T
°C
Wind Press
QNH
hPa
Press
MSL
hPa
Rain since
9am
mm
Dir  Spd
km/h
Gust
km/h
Spd
kts
Gust
kts
18/01:00pm 1.5 -4.4 1.5 100 0.0 W 22 43 12 23 - - 5.8
18/12:30pm 1.9 -2.3 1.9 100 0.0 W 13 33 7 18 - - 5.2
18/12:00pm 1.4 -4.0 1.4 100 0.0 W 19 41 10 22 - - 5.2
18/11:30am 1.0 -4.6 1.0 100 0.0 W 20 35 11 19 - - 4.8
18/11:00am 1.2 -3.8 1.2 100 0.0 WSW 17 35 9 19 - - 4.2
18/10:30am 0.8 -4.3 0.8 100 0.0 W 17 35 9 19 - - 3.4
18/10:00am 0.8 -4.3 0.8 100 0.0 W 17 35 9 19 - - 2.2
18/09:30am 0.6 -4.1 0.6 100 0.0 WSW 15 39 8 21 - - 1.0
18/09:00am 0.4 -5.3 0.4 100 0.0 W 20 37 11 20 - - 24.2
18/08:30am 0.3 -5.4 0.3 100 0.0 W 20 39 11 21 - - 23.6
18/08:00am 0.3 -4.9 0.3 100 0.0 W 17 41 9 22 - - 23.2
18/07:30am 0.4 -5.1 0.4 100 0.0 W 19 37 10 20 - - 22.8
18/07:00am 0.5 -5.0 0.5 100 0.0 W 19 35 10 19 - - 22.4
18/06:30am 0.4 -4.8 0.4 100 0.0 W 17 33 9 18 - - 22.2
18/06:00am 0.6 -5.1 0.6 100 0.0 W 20 43 11 23 - - 22.0
18/05:30am 0.5 -4.3 0.5 100 0.0 W 15 32 8 17 - - 21.8
18/05:00am 0.8 -5.2 0.8 100 0.0 W 22 48 12 26 - - 21.4
18/04:30am 0.9 -4.6 0.9 100 0.0 W 19 37 10 20 - - 21.0
18/04:00am 1.0 -4.4 1.0 100 0.0 W 19 39 10 21 - - 20.4
18/03:30am 1.1 -4.5 1.1 100 0.0 W 20 46 11 25 - - 19.8
18/03:00am 1.3 -4.7 1.3 100 0.0 W 22 39 12 21 - - 19.6
18/02:30am 1.2 -4.4 1.2 100 0.0 W 20 43 11 23 - - 19.2
18/02:00am 1.8 -4.1 1.8 100 0.0 W 22 48 12 26 - - 17.6
18/01:30am 2.0 -3.5 2.0 100 0.0 W 20 44 11 24 - - 17.6
18/01:00am 2.0 -3.5 2.0 100 0.0 W 20 37 11 20 - - 17.2
18/12:30am 2.1 -3.4 2.1 100 0.0 W 20 44 11 24 - - 16.6
18/12:00am 2.4 -3.4 2.4 100 0.0 W 22 43 12 23 - - 16.4
 
Date/Time
EST
Temp
°C
App
Temp
°C
Dew
Point
°C
Rel
Hum
%
Delta-T
°C
Wind Press
QNH
hPa
Press
MSL
hPa
Rain since
9am
mm
Dir  Spd
km/h
Gust
km/h
Spd
kts
Gust
kts
17/11:30pm 2.6 -2.6 2.6 100 0.0 W 19 46 10 25 - - 16.4
17/11:00pm 2.5 -2.9 2.5 100 0.0 W 20 39 11 21 - - 16.4
17/10:30pm 2.5 -1.9 2.5 100 0.0 W 15 41 8 22 - - 16.4
17/10:00pm 2.5 -2.7 2.5 100 0.0 W 19 43 10 23 - - 16.0
17/09:30pm 2.6 -2.6 2.6 100 0.0 WSW 19 39 10 21 - - 16.0
17/09:00pm 2.7 -3.0 2.7 100 0.0 W 22 50 12 27 - - 14.4
17/08:30pm 2.8 -2.3 2.8 100 0.0 W 19 41 10 22 - - 13.4
17/08:00pm 2.8 -1.6 2.8 100 0.0 WSW 15 30 8 16 - - 13.4
17/07:30pm 2.6 -2.6 2.6 100 0.0 W 19 35 10 19 - - 13.0
17/07:00pm 2.7 -2.7 2.7 100 0.0 W 20 48 11 26 - - 12.0
17/06:30pm 3.0 -1.7 3.0 100 0.0 W 17 39 9 21 - - 11.2
17/06:00pm 4.0 -2.3 4.0 100 0.0 WNW 26 72 14 39 - - 10.0
17/05:30pm 5.3 0.1 5.3 100 0.0 WNW 22 43 12 23 - - 9.2
17/05:00pm 5.2 0.5 5.2 100 0.0 WNW 19 35 10 19 - - 9.2
17/04:30pm 5.2 0.3 5.2 100 0.0 WNW 20 43 11 23 - - 9.2
17/04:00pm 5.0 1.0 5.0 100 0.0 WNW 15 37 8 20 - - 9.2
17/03:30pm 4.8 -0.2 4.8 100 0.0 W 20 39 11 21 - - 9.2
17/03:00pm 4.7 -0.1 4.7 100 0.0 W 19 33 10 18 - - 9.2
17/02:30pm 4.5 -0.3 4.5 100 0.0 W 19 43 10 23 - - 7.4
17/02:00pm 4.9 0.5 4.9 100 0.0 WNW 17 37 9 20 - - 4.6
17/01:30pm 4.7 -1.0 4.7 100 0.0 WNW 24 43 13 23 - - 2.8
17/01:00pm 4.6 -0.8 4.6 100 0.0 WNW 22 48 12 26 - - 1.4
17/12:30pm 4.5 -0.5 4.5 100 0.0 WNW 20 39 11 21 - - 0.6
17/12:00pm 4.3 -0.8 4.3 100 0.0 NW 20 50 11 27 - - 0.4
17/11:30am 4.0 -0.5 4.0 100 0.0 NW 17 43 9 23 - - 0.4
17/11:00am 3.9 -1.0 3.9 100 0.0 NW 19 37 10 20 - - 0.4
17/10:30am 3.9 -1.0 3.9 100 0.0 NW 19 41 10 22 - - 0.0
17/10:00am 3.8 -0.4 3.8 100 0.0 NNW 15 30 8 16 - - 0.0
17/09:30am 4.1 0.3 4.1 100 0.0 NW 13 32 7 17 - - 0.0
17/09:00am 4.3 0.2 4.3 100 0.0 NW 15 39 8 21 - - 11.4
17/08:30am 4.1 0.7 4.1 100 0.0 NW 11 26 6 14 - - 11.4
17/08:00am 3.9 0.1 3.9 100 0.0 NW 13 33 7 18 - - 11.4
17/07:30am 3.8 0.4 3.8 100 0.0 WNW 11 26 6 14 - - 11.4
17/07:00am 3.6 -0.3 3.6 100 0.0 WNW 13 28 7 15 - - 11.4
17/06:30am 3.5 0.0 3.5 100 0.0 WNW 11 24 6 13 - - 11.2
17/06:00am 3.6 0.1 3.6 100 0.0 W 11 20 6 11 - - 9.2
17/05:30am 3.7 -0.5 3.7 100 0.0 WNW 15 39 8 21 - - 8.0
17/05:00am 3.8 0.0 3.8 100 0.0 W 13 26 7 14 - - 7.2
17/04:30am 4.0 -0.5 4.0 100 0.0 W 17 39 9 21 - - 5.8
17/04:00am 4.3 0.6 4.3 100 0.0 WNW 13 28 7 15 - - 4.6
17/03:30am 4.4 0.7 4.4 100 0.0 WNW 13 24 7 13 - - 4.6
17/03:00am 4.4 0.7 4.4 100 0.0 WNW 13 28 7 15 - - 4.6
17/02:30am 4.3 1.0 4.3 100 0.0 WNW 11 20 6 11 - - 4.6
17/02:00am 4.4 0.3 4.4 100 0.0 WNW 15 26 8 14 - - 4.6
17/01:30am 4.5 0.4 4.5 100 0.0 W 15 30 8 16 - - 4.6
17/01:00am 4.5 0.1 4.5 100 0.0 WNW 17 32 9 17 - - 4.6
17/12:30am 4.4 -0.1 4.4 100 0.0 WNW 17 37 9 20 - - 4.4
17/12:00am 4.4 -0.6 4.4 100 0.0 WNW 20 41 11 22 - - 4.0
 
Date/Time
EST
Temp
°C
App
Temp
°C
Dew
Point
°C
Rel
Hum
%
Delta-T
°C
Wind Press
QNH
hPa
Press
MSL
hPa
Rain since
9am
mm
Dir  Spd
km/h
Gust
km/h
Spd
kts
Gust
kts
16/11:30pm 5.0 0.3 5.0 100 0.0 WNW 19 37 10 20 - - 2.6
16/11:00pm 4.8 0.4 4.8 100 0.0 WNW 17 37 9 20 - - 2.6
16/10:30pm 4.7 -0.1 4.6 99 0.0 WNW 19 33 10 18 - - 2.6
16/10:00pm 5.2 1.2 5.1 99 0.0 WNW 15 33 8 18 - - 2.6
16/09:30pm 5.6 0.9 5.3 98 0.1 WNW 19 37 10 20 - - 2.6
16/09:00pm 5.8 0.9 5.2 96 0.3 WNW 20 43 11 23 - - 2.6
16/08:30pm 5.9 1.0 5.2 95 0.3 NW 20 46 11 25 - - 2.6
16/08:00pm 5.8 1.2 5.4 97 0.2 NW 19 41 10 22 - - 2.4
16/07:30pm 5.4 1.1 5.3 99 0.0 NW 17 35 9 19 - - 2.4
16/07:00pm 5.1 1.1 5.1 100 0.0 NW 15 28 8 15 - - 2.4
16/06:30pm 4.9 0.5 4.9 100 0.0 NW 17 28 9 15 - - 2.4
16/06:00pm 5.0 0.6 5.0 100 0.0 WNW 17 41 9 22 - - 2.4
16/05:30pm 5.2 1.6 5.2 100 0.0 WNW 13 28 7 15 - - 2.4
16/05:00pm 5.5 1.6 5.4 99 0.0 W 15 33 8 18 - - 2.4
16/04:30pm 5.6 2.1 5.6 100 0.0 WNW 13 33 7 18 - - 2.4
16/04:00pm 5.3 0.6 5.3 100 0.0 W 19 44 10 24 - - 2.4
16/03:30pm 6.2 1.9 5.3 94 0.4 W 17 37 9 20 - - 2.0
16/03:00pm 5.8 0.9 5.2 96 0.3 W 20 39 11 21 - - 2.0
16/02:30pm 5.5 0.6 5.2 98 0.1 W 20 39 11 21 - - 2.0
16/02:00pm 6.3 1.6 5.9 97 0.2 W 20 43 11 23 - - 2.0
16/01:30pm 5.3 0.6 5.2 99 0.0 W 19 37 10 20 - - 2.0
16/01:00pm 5.9 1.6 5.3 96 0.3 W 17 37 9 20 - - 1.8
16/12:30pm 5.5 0.2 4.8 95 0.3 W 22 48 12 26 - - 1.8
16/12:00pm 5.8 1.6 5.5 98 0.1 WSW 17 43 9 23 - - 1.8
16/11:30am 5.3 0.6 5.2 99 0.0 WSW 19 37 10 20 - - 1.8
16/11:00am 5.0 -0.3 5.0 100 0.0 W 22 43 12 23 - - 1.8
16/10:30am 4.7 -1.4 4.7 100 0.0 W 26 46 14 25 - - 1.8
16/10:00am 4.8 0.0 4.8 100 0.0 WSW 19 52 10 28 - - 1.6
16/09:30am 4.9 -0.8 4.9 100 0.0 W 24 52 13 28 - - 1.6
16/09:00am 4.9 -1.2 4.9 100 0.0 W 26 57 14 31 - - 67.2
16/08:30am 4.8 -0.2 4.8 100 0.0 W 20 48 11 26 - - 66.8
16/08:00am 4.8 -1.3 4.8 100 0.0 W 26 50 14 27 - - 66.6
16/07:30am 5.0 -1.1 5.0 100 0.0 W 26 61 14 33 - - 66.2
16/07:00am 5.1 0.2 5.1 100 0.0 WSW 20 44 11 24 - - 66.0
16/06:49am 5.2 -1.2 5.2 100 0.0 W 28 52 15 28 - - 66.0
16/06:30am 5.3 -0.7 5.3 100 0.0 W 26 41 14 22 - - 66.0
16/06:00am 5.7 -0.6 5.7 100 0.0 W 28 57 15 31 - - 66.0
16/05:45am 5.4 -1.0 5.4 100 0.0 WSW 28 65 15 35 - - 65.8
16/05:30am 6.7 1.0 6.7 100 0.0 WNW 26 50 14 27 - - 62.2
16/05:20am 6.7 0.6 6.7 100 0.0 WNW 28 54 15 29 - - 61.2
16/05:00am 6.9 1.6 6.9 100 0.0 WNW 24 50 13 27 - - 59.8
16/04:33am 7.0 1.0 7.0 100 0.0 WNW 28 59 15 32 - - 56.4
16/04:30am 7.0 1.4 7.0 100 0.0 WNW 26 59 14 32 - - 56.2
16/04:00am 7.1 1.1 7.1 100 0.0 WNW 28 56 15 30 - - 53.0
16/03:56am 7.1 1.1 7.1 100 0.0 WNW 28 56 15 30 - - 52.4
16/03:30am 7.4 3.0 7.4 100 0.0 WNW 20 50 11 27 - - 51.0
16/03:00am 7.7 3.4 7.7 100 0.0 W 20 48 11 26 - - 49.2
16/02:30am 7.7 3.6 7.7 100 0.0 W 19 43 10 23 - - 46.2
16/02:00am 7.7 3.6 7.7 100 0.0 W 19 43 10 23 - - 43.0
16/01:30am 7.8 4.1 7.8 100 0.0 W 17 35 9 19 - - 40.6
16/01:00am 8.1 4.4 8.1 100 0.0 W 17 33 9 18 - - 38.4
16/12:30am 8.2 4.2 8.2 100 0.0 W 19 35 10 19 - - 35.8
16/12:00am 8.4 5.6 8.4 100 0.0 W 13 26 7 14 - - 33.2
 
Date/Time
EST
Temp
°C
App
Temp
°C
Dew
Point
°C
Rel
Hum
%
Delta-T
°C
Wind Press
QNH
hPa
Press
MSL
hPa
Rain since
9am
mm
Dir  Spd
km/h
Gust
km/h
Spd
kts
Gust
kts
15/11:30pm 8.5 6.8 8.5 100 0.0 W 7 19 4 10 - - 31.8
15/11:00pm 8.6 6.2 8.6 100 0.0 W 11 24 6 13 - - 30.2
15/10:30pm 8.6 5.8 8.6 100 0.0 W 13 30 7 16 - - 29.6
15/10:00pm 8.5 6.1 8.5 100 0.0 WNW 11 24 6 13 - - 27.2
15/09:30pm 8.4 5.6 8.4 100 0.0 NW 13 28 7 15 - - 25.4
15/09:00pm 8.3 6.2 8.3 100 0.0 WNW 9 17 5 9 - - 23.4
15/08:30pm 8.3 5.8 8.3 100 0.0 NW 11 24 6 13 - - 22.0
15/08:00pm 8.2 6.5 8.2 100 0.0 N 7 17 4 9 - - 20.2
15/07:30pm 8.1 6.0 8.1 100 0.0 N 9 20 5 11 - - 19.4
15/07:00pm 8.0 5.8 8.0 100 0.0 NNE 9 22 5 12 - - 16.4
15/06:30pm 7.9 6.3 7.9 100 0.0 N 6 9 3 5 - - 15.8
15/06:00pm 7.9 6.1 7.9 100 0.0 N 7 22 4 12 - - 14.8
15/05:30pm 7.8 6.2 7.8 100 0.0 N 6 9 3 5 - - 12.6
15/05:00pm 7.8 6.2 7.8 100 0.0 N 6 17 3 9 - - 11.0
15/04:30pm 7.7 6.8 7.7 100 0.0 NNW 2 6 1 3 - - 9.2
15/04:00pm 7.7 6.4 7.7 100 0.0 N 4 9 2 5 - - 8.2
15/03:30pm 7.5 5.8 7.5 100 0.0 NNE 6 13 3 7 - - 6.4
15/03:00pm 7.6 6.3 7.6 100 0.0 NNE 4 7 2 4 - - 4.8
15/02:30pm 7.5 6.2 7.5 100 0.0 N 4 7 2 4 - - 4.0
15/02:00pm 7.3 5.5 7.3 100 0.0 N 6 15 3 8 - - 2.4
15/01:30pm 7.6 5.9 7.6 100 0.0 N 6 11 3 6 - - 1.2

Other Formats:

Comma delimited format used in spreadsheet applications
http://www.bom.gov.au/fwo/IDV60801/IDV60801.94878.axf

JavaScript Object Notation format (JSON) in row-major order
http://www.bom.gov.au/fwo/IDV60801/IDV60801.94878.json